Time;durP1;ratioP1;P1;durP2;ratioP2;P2;SDS_P1;SDS_P2;PMS_P1;PMS_P2;Temp;Humidity;BMP_temperature;BMP_pressure;BME280_temperature;BME280_humidity;BME280_pressure;Samples;Min_cycle;Max_cycle;Signal;HPM_P1;HPM_P2
2022/05/31 00:00:03;;;;;;;9.63;4.93;;;486.40;2380.80;;;;;;5092206;28;20051;-83
2022/05/31 00:02:29;;;;;;;8.77;4.20;;;486.40;2380.80;;;;;;5093063;28;20035;-84
2022/05/31 00:04:55;;;;;;;9.48;4.80;;;461.70;2380.80;;;;;;5094467;28;20032;-84
2022/05/31 00:07:20;;;;;;;8.32;5.38;;;461.50;2380.80;;;;;;5092554;28;20136;-82
2022/05/31 00:09:46;;;;;;;8.45;4.22;;;461.40;2380.80;;;;;;5094010;28;20028;-84
2022/05/31 00:12:14;;;;;;;10.75;4.70;;;461.20;2380.80;;;;;;5093232;28;20055;-84
2022/05/31 00:14:40;;;;;;;7.50;4.80;;;461.30;2380.80;;;;;;5093049;28;20034;-84
2022/05/31 00:17:06;;;;;;;7.63;4.70;;;461.40;2380.80;;;;;;5094371;28;20020;-84
2022/05/31 00:19:32;;;;;;;10.20;4.78;;;461.50;2380.80;;;;;;5093247;28;20051;-84
2022/05/31 00:22:14;;;;;;;8.02;4.50;;;461.70;2380.80;;;;;;5092832;28;20031;-84
2022/05/31 00:24:41;;;;;;;10.45;4.40;;;461.50;2380.80;;;;;;5093144;28;20027;-83
2022/05/31 00:27:09;;;;;;;12.25;4.88;;;461.50;2380.80;;;;;;5092733;28;20093;-83
2022/05/31 00:29:35;;;;;;;9.25;5.15;;;461.40;2380.80;;;;;;5092855;28;20032;-83
2022/05/31 00:32:04;;;;;;;10.35;4.70;;;461.40;2380.80;;;;;;5092493;28;20035;-83
2022/05/31 00:34:33;;;;;;;9.43;4.97;;;461.30;2380.80;;;;;;5092305;28;20028;-84
2022/05/31 00:37:00;;;;;;;8.10;5.28;;;461.10;2380.80;;;;;;5092611;28;20085;-84
2022/05/31 00:39:25;;;;;;;7.13;4.20;;;461.00;2380.80;;;;;;5092910;28;20031;-84
2022/05/31 00:42:12;;;;;;;7.82;4.50;;;460.80;2380.80;;;;;;5092614;28;20455;-84
2022/05/31 00:44:39;;;;;;;9.18;4.45;;;436.10;2355.20;;;;;;5092904;28;20031;-84
2022/05/31 00:47:33;;;;;;;10.88;5.25;;;460.90;2380.80;;;;;;5092891;28;20032;-84
2022/05/31 00:50:04;;;;;;;9.07;4.63;;;461.10;2380.80;;;;;;5090100;28;20036;-84
2022/05/31 00:52:39;;;;;;;11.07;5.65;;;461.20;2380.80;;;;;;5092830;28;20036;-84
2022/05/31 00:55:13;;;;;;;10.05;5.05;;;461.00;2380.80;;;;;;5092518;28;20055;-83
2022/05/31 00:57:43;;;;;;;11.77;5.22;;;460.80;2380.80;;;;;;5092518;28;20028;-83
2022/05/31 01:00:13;;;;;;;12.60;4.53;;;460.80;2380.80;;;;;;5092543;28;20032;-84
2022/05/31 01:02:41;;;;;;;7.22;4.80;;;460.90;2380.80;;;;;;5092235;28;20027;-84
2022/05/31 01:05:09;;;;;;;9.15;5.00;;;460.90;2380.80;;;;;;5092584;28;20046;-84
2022/05/31 01:07:35;;;;;;;9.52;5.07;;;460.80;2380.80;;;;;;5092580;28;20048;-83
2022/05/31 01:10:08;;;;;;;8.32;4.65;;;460.80;2380.80;;;;;;5092334;28;20028;-84
2022/05/31 01:12:34;;;;;;;11.15;5.28;;;460.80;2380.80;;;;;;5093807;28;20020;-84
2022/05/31 01:15:00;;;;;;;9.10;4.47;;;460.80;2380.80;;;;;;5092737;28;20111;-84
2022/05/31 01:17:26;;;;;;;12.23;5.50;;;460.80;2380.80;;;;;;5093805;28;20059;-83
2022/05/31 01:19:56;;;;;;;6.38;4.68;;;436.10;2355.20;;;;;;5092714;28;20028;-85
2022/05/31 01:22:56;;;;;;;8.98;5.22;;;460.90;2380.80;;;;;;5092644;28;20020;-85
2022/05/31 01:25:22;;;;;;;10.70;5.75;;;435.80;2355.20;;;;;;5092316;28;20101;-84
2022/05/31 01:28:11;;;;;;;19.50;5.35;;;435.90;2355.20;;;;;;5092980;28;20417;-85
2022/05/31 01:31:17;;;;;;;7.45;5.00;;;435.90;2355.20;;;;;;5092319;28;20028;-85
2022/05/31 01:34:04;;;;;;;7.47;4.78;;;435.70;2355.20;;;;;;5086384;28;20373;-85
2022/05/31 01:36:39;;;;;;;8.90;5.00;;;435.70;2355.20;;;;;;5092581;28;20081;-85
2022/05/31 01:39:12;;;;;;;8.32;5.25;;;435.60;2355.20;;;;;;5092387;28;20024;-85
2022/05/31 01:42:11;;;;;;;8.77;5.03;;;435.70;2355.20;;;;;;5092569;28;20383;-84
2022/05/31 01:44:42;;;;;;;8.43;4.80;;;435.60;2355.20;;;;;;5092858;28;20138;-85
2022/05/31 01:47:08;;;;;;;8.52;5.07;;;435.50;2355.20;;;;;;5096169;28;20488;-84
2022/05/31 01:49:37;;;;;;;6.88;5.15;;;435.50;2355.20;;;;;;5095845;28;20119;-84
2022/05/31 01:52:04;;;;;;;10.98;5.45;;;435.60;2355.20;;;;;;5095719;28;20028;-83
2022/05/31 01:54:31;;;;;;;10.48;5.45;;;435.30;2355.20;;;;;;5095590;28;20032;-85
2022/05/31 01:57:01;;;;;;;7.53;4.97;;;435.30;2355.20;;;;;;5095618;28;20024;-84
2022/05/31 01:59:31;;;;;;;11.35;5.57;;;435.40;2355.20;;;;;;5095718;28;20038;-84
2022/05/31 02:01:59;;;;;;;11.23;6.05;;;435.50;2355.20;;;;;;5095714;28;20024;-84
2022/05/31 02:04:25;;;;;;;9.50;5.65;;;435.40;2355.20;;;;;;5095447;28;20028;-85
2022/05/31 02:07:10;;;;;;;8.70;5.50;;;435.30;2355.20;;;;;;5095854;28;20496;-84
2022/05/31 02:09:37;;;;;;;7.22;5.35;;;435.30;2355.20;;;;;;5095535;28;20060;-85
2022/05/31 02:12:05;;;;;;;8.05;5.50;;;435.30;2355.20;;;;;;5095281;28;20480;-84
2022/05/31 02:14:31;;;;;;;9.32;5.07;;;435.20;2355.20;;;;;;5095456;28;20063;-85
2022/05/31 02:16:57;;;;;;;12.85;5.80;;;435.20;2355.20;;;;;;5095404;28;20052;-84
2022/05/31 02:19:27;;;;;;;10.30;5.10;;;435.30;2355.20;;;;;;5095164;28;20095;-85
2022/05/31 02:21:55;;;;;;;11.55;6.72;;;435.30;2355.20;;;;;;5095299;28;20026;-85
2022/05/31 02:24:22;;;;;;;13.13;5.78;;;435.20;2355.20;;;;;;5095248;28;20066;-85
2022/05/31 02:26:48;;;;;;;7.47;5.45;;;435.40;2355.20;;;;;;5094931;28;20114;-85
2022/05/31 02:29:17;;;;;;;10.93;5.38;;;435.70;2355.20;;;;;;5095044;28;20032;-85
2022/05/31 02:31:44;;;;;;;7.35;5.22;;;435.50;2355.20;;;;;;5095281;28;20028;-85
2022/05/31 02:34:12;;;;;;;10.25;5.30;;;435.30;2355.20;;;;;;5094815;28;20024;-85
2022/05/31 02:36:39;;;;;;;10.68;6.05;;;435.20;2355.20;;;;;;5095043;28;20028;-85
2022/05/31 02:39:05;;;;;;;9.75;5.43;;;435.30;2355.20;;;;;;5094850;28;20035;-84
2022/05/31 02:41:32;;;;;;;8.75;5.28;;;410.50;2355.20;;;;;;5094750;28;20020;-84
2022/05/31 02:43:58;;;;;;;9.75;5.93;;;435.30;2355.20;;;;;;5094858;28;20084;-85
2022/05/31 02:46:25;;;;;;;11.02;6.05;;;435.30;2355.20;;;;;;5094691;28;20379;-84
2022/05/31 02:48:51;;;;;;;8.85;5.35;;;435.30;2355.20;;;;;;5096174;28;20105;-84
2022/05/31 02:51:18;;;;;;;10.18;5.40;;;435.20;2355.20;;;;;;5094640;28;20097;-83
2022/05/31 02:53:44;;;;;;;12.70;6.15;;;435.20;2355.20;;;;;;5094477;28;20028;-85
2022/05/31 02:56:10;;;;;;;12.27;6.38;;;435.20;2355.20;;;;;;5093891;28;20059;-85
2022/05/31 02:58:36;;;;;;;10.40;6.55;;;410.50;2355.20;;;;;;5097263;28;20099;-84
2022/05/31 03:01:17;;;;;;;10.00;6.38;;;410.50;2355.20;;;;;;5119808;28;20009;-85
2022/05/31 03:03:43;;;;;;;8.52;5.43;;;435.20;2355.20;;;;;;5119669;28;20016;-84
2022/05/31 03:06:08;;;;;;;13.30;5.47;;;435.30;2355.20;;;;;;5118805;28;20043;-83
2022/05/31 03:08:35;;;;;;;9.07;5.80;;;435.30;2355.20;;;;;;5095357;28;20082;-85
2022/05/31 03:11:02;;;;;;;10.40;5.72;;;435.30;2355.20;;;;;;5095563;28;20054;-84
2022/05/31 03:13:29;;;;;;;8.25;5.47;;;435.20;2355.20;;;;;;5094827;28;20032;-84
2022/05/31 03:16:02;;;;;;;11.73;7.10;;;410.50;2355.20;;;;;;5094435;28;20077;-85
2022/05/31 03:18:34;;;;;;;10.18;5.75;;;410.50;2355.20;;;;;;5094384;28;20059;-85
2022/05/31 03:21:08;;;;;;;11.93;7.05;;;435.20;2355.20;;;;;;5094235;28;20110;-85
2022/05/31 03:23:43;;;;;;;9.63;5.63;;;410.50;2355.20;;;;;;5093900;28;20024;-85
2022/05/31 03:26:12;;;;;;;7.85;5.40;;;410.50;2355.20;;;;;;5094041;28;20115;-84
2022/05/31 03:28:38;;;;;;;9.43;5.80;;;435.20;2355.20;;;;;;5095326;28;20056;-84
2022/05/31 03:31:05;;;;;;;13.18;6.88;;;410.50;2355.20;;;;;;5094799;28;20099;-84
2022/05/31 03:33:32;;;;;;;8.52;6.15;;;410.40;2355.20;;;;;;5093903;28;20036;-84
2022/05/31 03:35:58;;;;;;;12.27;6.55;;;410.30;2355.20;;;;;;5093870;28;20056;-87
2022/05/31 03:38:24;;;;;;;19.15;6.78;;;410.30;2355.20;;;;;;5093780;28;20502;-87
2022/05/31 03:40:56;;;;;;;9.93;6.03;;;410.50;2355.20;;;;;;5093930;28;20439;-87
2022/05/31 03:43:23;;;;;;;9.30;6.35;;;410.50;2355.20;;;;;;5093574;28;20025;-87
2022/05/31 03:45:49;;;;;;;12.38;5.60;;;410.30;2355.20;;;;;;5093629;28;20035;-86
2022/05/31 03:48:15;;;;;;;9.45;6.07;;;410.50;2355.20;;;;;;5094927;28;20032;-86
2022/05/31 03:50:42;;;;;;;11.95;5.72;;;435.30;2355.20;;;;;;5093041;28;20032;-87
2022/05/31 03:53:13;;;;;;;11.82;5.22;;;410.20;2355.20;;;;;;5093499;28;20032;-86
2022/05/31 03:55:41;;;;;;;11.57;6.15;;;410.30;2355.20;;;;;;5093462;28;20039;-87
2022/05/31 03:58:07;;;;;;;14.20;8.88;;;410.30;2355.20;;;;;;5093122;28;20463;-86
2022/05/31 04:00:34;;;;;;;17.17;9.45;;;410.20;2355.20;;;;;;5093419;28;20032;-86
2022/05/31 04:03:00;;;;;;;13.27;7.68;;;410.40;2355.20;;;;;;5093409;28;20467;-87
2022/05/31 04:05:27;;;;;;;12.60;6.38;;;410.40;2355.20;;;;;;5093043;28;20062;-87
2022/05/31 04:08:01;;;;;;;11.43;5.68;;;410.40;2355.20;;;;;;5092670;28;20044;-86
2022/05/31 04:10:29;;;;;;;13.82;5.82;;;410.30;2355.20;;;;;;5093153;28;20387;-86
2022/05/31 04:12:55;;;;;;;9.10;5.68;;;410.30;2355.20;;;;;;5093062;28;20032;-86
2022/05/31 04:15:22;;;;;;;10.30;5.65;;;435.20;2355.20;;;;;;5093250;28;20028;-86
2022/05/31 04:17:47;;;;;;;12.27;6.63;;;435.20;2355.20;;;;;;5093189;28;20050;-86
2022/05/31 04:20:13;;;;;;;12.23;5.43;;;410.40;2355.20;;;;;;5093047;28;20530;-85
2022/05/31 04:22:39;;;;;;;9.80;5.70;;;410.40;2355.20;;;;;;5093185;28;20036;-87
2022/05/31 04:25:05;;;;;;;11.80;7.85;;;435.20;2355.20;;;;;;5092995;28;20034;-86
2022/05/31 04:27:31;;;;;;;11.68;8.02;;;435.20;2355.20;;;;;;5093140;28;20024;-86
2022/05/31 04:29:57;;;;;;;13.63;10.75;;;435.40;2355.20;;;;;;5093158;28;20085;-86
2022/05/31 04:32:23;;;;;;;11.82;10.25;;;435.30;2355.20;;;;;;5092914;28;20115;-86
2022/05/31 04:34:50;;;;;;;12.35;7.10;;;410.20;2355.20;;;;;;5093199;28;20115;-86
2022/05/31 04:37:16;;;;;;;13.63;7.22;;;435.40;2355.20;;;;;;5092906;28;20030;-87
2022/05/31 04:39:42;;;;;;;13.90;7.75;;;435.20;2355.20;;;;;;5092834;28;20379;-87
2022/05/31 04:42:09;;;;;;;18.05;7.65;;;410.50;2355.20;;;;;;5092969;28;20032;-86
2022/05/31 04:44:34;;;;;;;12.55;7.57;;;435.20;2355.20;;;;;;5092740;28;20039;-86
2022/05/31 04:47:02;;;;;;;13.35;7.30;;;435.30;2355.20;;;;;;5093833;28;20359;-86
2022/05/31 04:49:28;;;;;;;13.27;6.95;;;435.30;2355.20;;;;;;5092550;28;20459;-86
2022/05/31 04:51:54;;;;;;;12.40;6.82;;;435.30;2355.20;;;;;;5093052;28;20032;-86
2022/05/31 04:54:23;;;;;;;14.30;7.18;;;435.30;2355.20;;;;;;5092500;28;20051;-84
2022/05/31 04:56:49;;;;;;;12.07;8.02;;;435.40;2355.20;;;;;;5092352;28;20115;-83
2022/05/31 04:59:16;;;;;;;16.30;8.30;;;435.50;2355.20;;;;;;5093489;28;20064;-84
2022/05/31 05:01:42;;;;;;;15.15;8.40;;;435.60;2355.20;;;;;;5091986;28;20115;-83
2022/05/31 05:04:08;;;;;;;11.55;7.55;;;435.60;2355.20;;;;;;5092287;28;20482;-83
2022/05/31 05:06:34;;;;;;;15.00;7.60;;;435.50;2355.20;;;;;;5092034;28;20074;-83
2022/05/31 05:09:00;;;;;;;10.98;7.45;;;435.50;2355.20;;;;;;5091541;28;20052;-82
2022/05/31 05:11:26;;;;;;;12.02;6.70;;;435.60;2355.20;;;;;;5093180;28;20103;-83
2022/05/31 05:13:56;;;;;;;13.98;7.68;;;435.90;2355.20;;;;;;5092285;28;20032;-83
2022/05/31 05:16:22;;;;;;;16.73;7.15;;;435.90;2355.20;;;;;;5091907;28;20024;-83
2022/05/31 05:18:48;;;;;;;12.20;6.85;;;435.80;2355.20;;;;;;5092993;28;20376;-83
2022/05/31 05:21:15;;;;;;;13.40;8.15;;;435.70;2355.20;;;;;;5095870;28;20111;-82
2022/05/31 05:23:41;;;;;;;16.27;7.60;;;435.80;2355.20;;;;;;5096060;28;20037;-83
2022/05/31 05:26:08;;;;;;;10.85;6.97;;;436.10;2355.20;;;;;;5096034;28;20142;-83
2022/05/31 05:31:26;;;;;;;18.77;7.60;;;460.90;2380.80;;;;;;5096923;28;20039;-83
2022/05/31 05:33:54;;;;;;;14.75;7.68;;;460.90;2380.80;;;;;;5095841;28;20032;-83
2022/05/31 05:36:20;;;;;;;15.95;7.95;;;461.00;2380.80;;;;;;5095496;28;20024;-83
2022/05/31 05:38:46;;;;;;;12.75;8.05;;;461.00;2380.80;;;;;;5095690;28;20020;-83
2022/05/31 05:41:12;;;;;;;18.92;7.80;;;461.20;2380.80;;;;;;5095668;28;20032;-83
2022/05/31 05:43:40;;;;;;;14.48;7.50;;;461.30;2380.80;;;;;;5095240;28;20475;-83
2022/05/31 05:46:20;;;;;;;12.30;6.88;;;461.20;2380.80;;;;;;5096810;28;20028;-83
2022/05/31 05:48:46;;;;;;;11.05;7.57;;;461.40;2380.80;;;;;;5095664;28;20024;-80
2022/05/31 05:51:17;;;;;;;12.00;7.88;;;461.50;2380.80;;;;;;5096352;28;20035;-79
2022/05/31 05:53:43;;;;;;;12.70;7.43;;;461.70;2380.80;;;;;;5096733;28;20352;-80
2022/05/31 05:56:09;;;;;;;12.15;7.18;;;486.50;2380.80;;;;;;5096078;28;20027;-79
2022/05/31 05:58:35;;;;;;;13.93;7.53;;;486.50;2380.80;;;;;;5095232;28;20032;-79
2022/05/31 06:01:03;;;;;;;12.50;7.35;;;486.50;2380.80;;;;;;5095256;28;20063;-79
2022/05/31 06:03:43;;;;;;;14.93;7.25;;;486.70;2380.80;;;;;;5094963;28;20097;-79
2022/05/31 06:06:11;;;;;;;11.07;7.13;;;486.80;2380.80;;;;;;5096807;28;20048;-79
2022/05/31 06:08:43;;;;;;;14.48;7.95;;;487.10;2380.80;;;;;;5094801;28;20502;-80
2022/05/31 06:11:15;;;;;;;;;;;487.20;2380.80;;;;;;5095297;28;20111;-80
2022/05/31 06:14:06;;;;;;;11.67;7.43;;;487.20;2380.80;;;;;;5095112;28;19931;-79
2022/05/31 06:16:35;;;;;;;12.38;7.70;;;512.00;2380.80;;;;;;5094545;28;20739;-79
2022/05/31 06:19:07;;;;;;;11.85;6.82;;;512.20;2380.80;;;;;;5094900;28;20063;-79
2022/05/31 06:21:33;;;;;;;10.02;7.13;;;512.40;2380.80;;;;;;5096224;28;20020;-79
2022/05/31 06:24:00;;;;;;;11.27;7.28;;;512.40;2380.80;;;;;;5094983;28;20036;-79
2022/05/31 06:26:27;;;;;;;12.93;7.97;;;512.50;2380.80;;;;;;5094633;28;20031;-79
2022/05/31 06:28:53;;;;;;;11.00;7.18;;;512.60;2380.80;;;;;;5094810;28;20097;-78
2022/05/31 06:31:19;;;;;;;11.45;7.15;;;512.70;2380.80;;;;;;5093314;28;20456;-79
2022/05/31 06:33:44;;;;;;;11.73;7.57;;;512.90;2380.80;;;;;;5095601;28;20119;-79
2022/05/31 06:36:10;;;;;;;14.30;8.38;;;537.60;2406.40;;;;;;5094586;28;20052;-78
2022/05/31 06:38:36;;;;;;;13.10;7.03;;;537.60;2406.40;;;;;;5095554;28;20491;-78
2022/05/31 06:41:04;;;;;;;9.82;6.82;;;537.90;2406.40;;;;;;5094405;28;20032;-79
2022/05/31 06:43:30;;;;;;;10.00;6.32;;;538.00;2406.40;;;;;;5094468;28;20024;-79
2022/05/31 06:45:57;;;;;;;10.63;5.82;;;538.10;2406.40;;;;;;5094303;28;20032;-79
2022/05/31 06:48:22;;;;;;;11.65;6.30;;;563.20;2432.00;;;;;;5094377;28;20031;-79
2022/05/31 06:50:48;;;;;;;9.50;6.32;;;563.20;2432.00;;;;;;5094226;28;20028;-79
2022/05/31 06:58:44;;;;;;;9.27;5.93;;;563.60;2432.00;;;;;;5095199;28;20065;-79
2022/05/31 07:01:09;;;;;;;10.45;6.13;;;563.60;2432.00;;;;;;5095032;28;20032;-79
2022/05/31 07:03:36;;;;;;;8.90;6.28;;;563.50;2432.00;;;;;;5094031;28;20028;-79
2022/05/31 07:06:02;;;;;;;8.70;5.97;;;563.70;2432.00;;;;;;5093699;28;20031;-77
2022/05/31 07:08:28;;;;;;;15.55;6.57;;;563.70;2432.00;;;;;;5093785;28;20395;-79
2022/05/31 07:10:54;;;;;;;9.30;5.57;;;563.50;2432.00;;;;;;5093603;28;20039;-79
2022/05/31 07:13:21;;;;;;;10.73;6.20;;;563.70;2432.00;;;;;;5094682;28;20024;-79
2022/05/31 07:15:50;;;;;;;7.70;5.03;;;563.50;2432.00;;;;;;5093986;28;20028;-79
2022/05/31 07:18:17;;;;;;;10.13;5.03;;;563.50;2432.00;;;;;;5093795;28;20055;-79
2022/05/31 07:20:44;;;;;;;11.95;6.20;;;563.60;2432.00;;;;;;5095058;28;20498;-79
2022/05/31 07:23:10;;;;;;;10.07;5.43;;;564.00;2432.00;;;;;;5094629;28;20037;-78
2022/05/31 07:25:36;;;;;;;8.45;5.47;;;588.90;2432.00;;;;;;5093626;28;20025;-77
2022/05/31 07:28:02;;;;;;;7.68;4.82;;;589.10;2432.00;;;;;;5093331;28;20020;-79
2022/05/31 07:30:28;;;;;;;6.80;4.93;;;589.40;2432.00;;;;;;5093374;28;20028;-79
2022/05/31 07:32:54;;;;;;;11.80;6.40;;;589.30;2432.00;;;;;;5094379;28;20034;-78
2022/05/31 07:35:20;;;;;;;10.02;5.50;;;589.20;2432.00;;;;;;5093243;28;20085;-79
2022/05/31 07:37:46;;;;;;;14.85;6.55;;;589.50;2432.00;;;;;;5093372;28;20028;-77
2022/05/31 07:40:12;;;;;;;9.77;4.70;;;589.70;2432.00;;;;;;5093133;28;20077;-78
2022/05/31 07:42:38;;;;;;;7.68;5.57;;;614.50;2432.00;;;;;;5091942;28;20540;-76
2022/05/31 07:45:05;;;;;;;8.13;4.80;;;614.50;2432.00;;;;;;5093233;28;20402;-75
2022/05/31 07:47:31;;;;;;;9.35;6.65;;;589.70;2432.00;;;;;;5093297;28;20024;-76
2022/05/31 07:49:57;;;;;;;9.52;5.13;;;614.50;2432.00;;;;;;5092700;28;20460;-77
2022/05/31 07:52:22;;;;;;;8.88;5.38;;;614.70;2432.00;;;;;;5093105;28;20039;-76
2022/05/31 07:54:48;;;;;;;10.25;5.40;;;614.90;2432.00;;;;;;5093049;28;20050;-75
2022/05/31 07:59:59;;;;;;;11.43;7.13;;;615.20;2432.00;;;;;;5094018;28;20034;-76
2022/05/31 08:02:25;;;;;;;9.68;4.70;;;640.10;2432.00;;;;;;5094229;28;20024;-77
2022/05/31 08:04:50;;;;;;;8.68;5.13;;;640.30;2432.00;;;;;;5092776;28;20028;-78
2022/05/31 08:07:16;;;;;;;8.05;4.60;;;615.20;2432.00;;;;;;5092295;28;20411;-78
2022/05/31 08:09:42;;;;;;;7.85;5.78;;;615.20;2432.00;;;;;;5092745;28;20032;-78
2022/05/31 08:12:10;;;;;;;8.20;5.00;;;640.00;2432.00;;;;;;5092617;28;20071;-81
2022/05/31 08:14:36;;;;;;;11.85;8.05;;;640.40;2432.00;;;;;;5092450;28;20028;-79
2022/05/31 08:17:03;;;;;;;9.20;5.72;;;640.70;2432.00;;;;;;5092842;28;20031;-79
2022/05/31 08:19:30;;;;;;;9.25;5.00;;;640.90;2432.00;;;;;;5092371;28;20024;-78
2022/05/31 08:21:56;;;;;;;7.72;5.68;;;665.60;2432.00;;;;;;5092350;28;20040;-78
2022/05/31 08:24:23;;;;;;;8.02;4.60;;;640.90;2432.00;;;;;;5092412;28;20174;-80
2022/05/31 08:26:49;;;;;;;8.65;5.25;;;665.60;2432.00;;;;;;5092353;28;20024;-80
2022/05/31 08:29:16;;;;;;;8.25;5.05;;;665.70;2432.00;;;;;;5092265;28;20375;-79
2022/05/31 08:31:42;;;;;;;10.27;4.30;;;665.90;2432.00;;;;;;5092728;28;20028;-79
2022/05/31 08:34:08;;;;;;;7.70;4.63;;;665.90;2432.00;;;;;;5093813;28;20047;-78
2022/05/31 08:36:34;;;;;;;6.70;3.65;;;665.90;2432.00;;;;;;5092418;28;20032;-78
2022/05/31 08:39:00;;;;;;;10.45;6.57;;;666.00;2432.00;;;;;;5093736;28;20095;-78
2022/05/31 08:41:32;;;;;;;6.85;4.63;;;666.30;2432.00;;;;;;5093288;28;20035;-78
2022/05/31 08:44:16;;;;;;;7.47;4.20;;;666.40;2432.00;;;;;;5092516;28;20028;-77
2022/05/31 08:46:51;;;;;;;7.40;4.70;;;691.20;2432.00;;;;;;5092460;28;20020;-76
2022/05/31 08:51:52;;;;;;;9.43;4.53;;;691.30;2432.00;;;;;;5092272;28;20035;-77
2022/05/31 08:52:34;;;;;;;9.65;4.55;;;691.40;2432.00;;;;;;5090695;28;20605;-80
2022/05/31 08:58:03;;;;;;;11.73;4.78;;;691.30;2432.00;;;;;;5097357;28;20027;-78
2022/05/31 09:00:34;;;;;;;9.48;4.18;;;691.70;2432.00;;;;;;5096178;28;20051;-78
2022/05/31 09:03:14;;;;;;;7.90;4.45;;;691.50;2432.00;;;;;;5095916;28;20028;-79
2022/05/31 09:05:46;;;;;;;7.13;4.68;;;691.80;2432.00;;;;;;5096237;28;20024;-80
2022/05/31 09:08:28;;;;;;;9.80;4.82;;;692.00;2432.00;;;;;;5096024;28;20466;-80
2022/05/31 09:11:20;;;;;;;8.35;4.32;;;691.90;2380.80;;;;;;5095590;28;20020;-79
2022/05/31 09:13:54;;;;;;;8.45;4.70;;;716.90;2380.80;;;;;;5075912;28;20559;-81
2022/05/31 09:17:05;;;;;;;10.38;4.93;;;716.90;2329.60;;;;;;5092473;28;20028;-79
2022/05/31 09:19:47;;;;;;;8.25;4.65;;;692.00;2329.60;;;;;;5072426;28;20040;-79
2022/05/31 09:22:14;;;;;;;8.02;5.10;;;716.90;2329.60;;;;;;5096127;28;20097;-79
2022/05/31 09:24:44;;;;;;;12.05;4.57;;;717.10;2329.60;;;;;;5095421;28;20424;-79
2022/05/31 09:27:33;;;;;;;7.72;4.72;;;717.40;2304.00;;;;;;5097086;28;20024;-79
2022/05/31 09:30:10;;;;;;;6.90;4.10;;;717.70;2278.40;;;;;;5094892;28;20086;-78
2022/05/31 09:32:41;;;;;;;9.80;4.38;;;742.50;2278.40;;;;;;5096104;28;20392;-77
2022/05/31 09:35:21;;;;;;;12.90;5.80;;;742.50;2227.20;;;;;;5096927;28;20031;-77
2022/05/31 09:38:24;;;;;;;8.68;4.70;;;742.50;2227.20;;;;;;5110290;28;20032;-76
2022/05/31 09:41:05;;;;;;;8.15;5.47;;;742.50;2201.60;;;;;;5075874;28;20040;-77
2022/05/31 09:43:49;;;;;;;7.90;4.05;;;742.40;2227.20;;;;;;5095454;28;20544;-77
2022/05/31 09:46:27;;;;;;;9.30;4.80;;;717.50;2176.00;;;;;;5097360;28;20074;-81
2022/05/31 09:48:54;;;;;;;6.53;4.28;;;742.40;2227.20;;;;;;5096219;28;20020;-80
2022/05/31 09:51:39;;;;;;;12.30;4.75;;;742.50;2201.60;;;;;;5092618;28;20036;-79
2022/05/31 09:57:10;;;;;;;9.57;5.32;;;743.00;2176.00;;;;;;5096966;28;20038;-81
2022/05/31 09:59:59;;;;;;;10.05;4.72;;;743.30;2176.00;;;;;;5080730;28;20036;-80
2022/05/31 10:02:24;;;;;;;9.45;4.22;;;768.00;2150.40;;;;;;5075302;28;20067;-81
2022/05/31 10:05:05;;;;;;;8.70;5.05;;;768.20;2124.80;;;;;;5074459;28;20397;-79
2022/05/31 10:07:35;;;;;;;11.60;5.05;;;768.20;2124.80;;;;;;5075904;28;20091;-79
2022/05/31 10:10:27;;;;;;;13.07;5.53;;;768.20;2099.20;;;;;;5075126;28;20024;-79
2022/05/31 10:12:59;;;;;;;8.15;4.50;;;768.40;2124.80;;;;;;5085750;28;20542;-80
2022/05/31 10:15:43;;;;;;;;;;;768.60;2099.20;;;;;;5090613;28;20074;-80
2022/05/31 10:18:12;;;;;;;9.55;5.60;;;768.70;2073.60;;;;;;5074916;28;20330;-80
2022/05/31 10:21:02;;;;;;;12.88;5.47;;;768.70;2073.60;;;;;;5075920;28;20033;-80
2022/05/31 10:23:41;;;;;;;12.35;7.03;;;768.90;2048.00;;;;;;5074965;28;20032;-80
2022/05/31 10:26:07;;;;;;;12.88;5.43;;;793.60;2048.00;;;;;;5074785;28;20028;-80
2022/05/31 10:28:58;;;;;;;9.60;5.07;;;794.00;2048.00;;;;;;5075750;28;20537;-79
2022/05/31 10:31:33;;;;;;;8.07;5.00;;;794.00;2022.40;;;;;;5076052;28;20035;-79
2022/05/31 10:34:02;;;;;;;9.45;5.28;;;794.20;1971.20;;;;;;5074480;28;20159;-81
2022/05/31 10:36:31;;;;;;;11.93;5.80;;;793.90;2022.40;;;;;;5074517;28;20028;-81
2022/05/31 10:39:09;;;;;;;14.13;6.45;;;793.90;1996.80;;;;;;5074573;28;20028;-80
2022/05/31 10:41:35;;;;;;;12.75;6.43;;;793.90;1971.20;;;;;;5089220;28;20073;-81
2022/05/31 10:44:28;;;;;;;10.15;7.82;;;794.20;1996.80;;;;;;5094858;28;20059;-80
2022/05/31 10:47:01;;;;;;;9.88;7.30;;;819.20;1971.20;;;;;;5094492;28;20439;-80
2022/05/31 10:49:27;;;;;;;11.20;6.63;;;819.20;1971.20;;;;;;5094409;28;20491;-79
2022/05/31 10:52:08;;;;;;;12.60;6.13;;;819.30;1971.20;;;;;;5094383;28;20119;-79
2022/05/31 10:54:58;;;;;;;11.00;6.72;;;819.30;1920.00;;;;;;5094170;28;20076;-78
2022/05/31 10:57:42;;;;;;;8.93;5.28;;;819.40;1894.40;;;;;;5094325;28;20020;-79
2022/05/31 11:00:17;;;;;;;10.00;5.30;;;819.20;1920.00;;;;;;5094240;28;20120;-78
2022/05/31 11:03:02;;;;;;;11.98;5.80;;;819.40;1894.40;;;;;;5094863;28;20056;-79
2022/05/31 11:06:06;;;;;;;10.63;6.32;;;819.40;1894.40;;;;;;5094157;28;20119;-79
2022/05/31 11:11:38;;;;;;;9.07;4.60;;;819.80;1868.80;;;;;;5096814;28;20031;-78
2022/05/31 11:14:27;;;;;;;9.35;4.50;;;820.00;1868.80;;;;;;5104705;28;20028;-76
2022/05/31 11:17:00;;;;;;;10.73;5.72;;;820.00;1868.80;;;;;;5095037;28;20091;-79
2022/05/31 11:19:56;;;;;;;7.32;4.03;;;820.00;1868.80;;;;;;5094784;28;20062;-77
2022/05/31 11:22:40;;;;;;;10.23;5.90;;;819.60;1868.80;;;;;;5091991;28;20052;-79
2022/05/31 11:25:27;;;;;;;10.70;4.57;;;819.80;1868.80;;;;;;5095143;28;20055;-81
2022/05/31 11:28:02;;;;;;;16.42;8.00;;;820.00;1868.80;;;;;;5093796;28;20070;-79
2022/05/31 11:30:55;;;;;;;15.60;8.77;;;819.60;1971.20;;;;;;5094878;28;20032;-79
2022/05/31 11:33:30;;;;;;;13.00;9.20;;;819.60;1996.80;;;;;;5095358;28;20131;-79
2022/05/31 11:36:38;;;;;;;14.20;9.68;;;819.30;1996.80;;;;;;5093455;28;20032;-80
2022/05/31 11:39:57;;;;;;;12.45;8.82;;;794.50;1996.80;;;;;;5083877;28;20044;-79
2022/05/31 11:42:44;;;;;;;13.27;9.27;;;768.70;2022.40;;;;;;5045726;28;20047;-81
2022/05/31 11:45:42;;;;;;;16.15;10.27;;;743.30;2073.60;;;;;;5107782;28;20399;-82
2022/05/31 11:48:36;;;;;;;20.98;13.05;;;742.70;2124.80;;;;;;5078343;28;20032;-82
2022/05/31 11:51:05;;;;;;;20.38;15.07;;;717.50;2150.40;;;;;;5091880;28;20025;-81
2022/05/31 11:53:36;;;;;;;26.35;17.25;;;716.90;2252.80;;;;;;5090861;28;20024;-82
2022/05/31 11:56:08;;;;;;;25.00;18.88;;;691.90;2227.20;;;;;;5094340;28;20024;-77
2022/05/31 11:58:52;;;;;;;39.73;22.60;;;691.30;2304.00;;;;;;5092611;28;20055;-78
2022/05/31 12:01:21;;;;;;;28.25;20.48;;;666.50;2329.60;;;;;;5092694;28;20327;-80
2022/05/31 12:04:07;;;;;;;37.47;21.35;;;666.10;2380.80;;;;;;5092584;28;20032;-79
2022/05/31 12:07:12;;;;;;;26.02;19.45;;;665.70;2432.00;;;;;;5093075;28;20479;-78
2022/05/31 12:09:51;;;;;;;34.90;21.23;;;640.80;2432.00;;;;;;5070016;28;20048;-77
2022/05/31 12:12:32;;;;;;;35.03;19.67;;;640.40;2432.00;;;;;;5093794;28;20069;-77
2022/05/31 12:15:10;;;;;;;32.20;19.63;;;640.20;2432.00;;;;;;5096127;28;20108;-78
2022/05/31 12:17:55;;;;;;;26.42;19.15;;;615.20;2432.00;;;;;;5095172;28;20055;-77
2022/05/31 12:20:44;;;;;;;27.65;18.15;;;615.00;2432.00;;;;;;5095694;28;20126;-78
2022/05/31 12:23:22;;;;;;;27.92;18.10;;;614.90;2432.00;;;;;;5092519;28;20024;-78
2022/05/31 12:25:52;;;;;;;25.52;16.27;;;614.90;2432.00;;;;;;5093177;28;20080;-78
2022/05/31 12:28:21;;;;;;;26.42;17.40;;;614.80;2432.00;;;;;;5092630;28;20059;-78
2022/05/31 12:31:07;;;;;;;22.67;16.85;;;614.80;2432.00;;;;;;5093116;28;20035;-78
2022/05/31 12:33:46;;;;;;;23.58;14.88;;;614.60;2432.00;;;;;;5092060;28;20471;-78
2022/05/31 12:36:15;;;;;;;21.02;16.27;;;614.50;2432.00;;;;;;5092421;28;20460;-78
2022/05/31 12:39:00;;;;;;;20.98;16.55;;;614.40;2432.00;;;;;;5092135;28;20024;-78
2022/05/31 12:41:55;;;;;;;16.65;12.10;;;589.70;2432.00;;;;;;5094027;28;20089;-78
2022/05/31 12:44:35;;;;;;;20.42;15.13;;;589.70;2432.00;;;;;;5083596;28;20060;-79
2022/05/31 12:47:31;;;;;;;22.00;13.60;;;614.60;2432.00;;;;;;5092121;28;20021;-79
2022/05/31 12:50:02;;;;;;;19.40;12.55;;;589.70;2432.00;;;;;;5092329;28;20029;-78
2022/05/31 12:55:36;;;;;;;17.58;10.77;;;589.50;2432.00;;;;;;5093278;28;20020;-76
2022/05/31 13:00:52;;;;;;;16.27;9.15;;;589.30;2432.00;;;;;;5093073;28;20541;-77